Gimli Industrial Park Airport


Codes: CYGM/YGM
Name: Gimli Industrial Park Airport
City: Gimli
Country: Canada
Elevation: 753 ft.
Wikipedia:

Photos at Gimli Industrial Park Airport


   Photos courtesy of SpottingLog. You can add your own sightings and photos by signing up for a free trial today.



No photos found.

Weather at Gimli Industrial Park Airport


Time (UTC)DescriptionTempratureWindCloud coverageVisibilityPressureHumidity
16-Jun-2024 03:00Moderate Rain21°C18 mph, S100%10000m1000hPa92%
16-Jun-2024 06:00Light Rain19°C16 mph, S100%10000m999hPa94%
16-Jun-2024 09:00Moderate Rain17°C18 mph, SE100%10000m995hPa98%
16-Jun-2024 12:00Light Rain17°C13 mph, S100%10000m995hPa98%
16-Jun-2024 15:00Light Rain18°C16 mph, SW100%10000m995hPa89%
16-Jun-2024 18:00Broken Clouds19°C22 mph, SW70%10000m997hPa67%
16-Jun-2024 21:00Clear Sky19°C22 mph, SW0%10000m997hPa65%
17-Jun-2024 00:00Clear Sky17°C25 mph, SW4%10000m998hPa68%
17-Jun-2024 03:00Clear Sky14°C22 mph, W2%10000m1002hPa69%
17-Jun-2024 06:00Clear Sky11°C13 mph, W2%10000m1006hPa71%
17-Jun-2024 09:00Clear Sky8°C11 mph, W9%10000m1008hPa81%
17-Jun-2024 12:00Clear Sky9°C9 mph, W8%10000m1010hPa77%
17-Jun-2024 15:00Clear Sky14°C9 mph, W0%10000m1011hPa63%
17-Jun-2024 18:00Few Clouds16°C7 mph, NW16%10000m1011hPa51%
17-Jun-2024 21:00Scattered Clouds17°C2 mph, NE49%10000m1010hPa51%
18-Jun-2024 00:00Broken Clouds15°C7 mph, E70%10000m1009hPa65%
18-Jun-2024 03:00Overcast Clouds14°C13 mph, N100%10000m1008hPa65%
18-Jun-2024 06:00Light Rain11°C11 mph, N100%10000m1008hPa78%
18-Jun-2024 09:00Light Rain10°C18 mph, N100%10000m1005hPa92%
18-Jun-2024 12:00Light Rain11°C16 mph, NE100%10000m1004hPa93%
18-Jun-2024 15:00Light Rain11°C13 mph, N100%10000m1005hPa91%
18-Jun-2024 18:00Light Rain11°C13 mph, N100%10000m1007hPa91%
18-Jun-2024 21:00Light Rain13°C9 mph, N100%10000m1008hPa87%
19-Jun-2024 00:00Light Rain14°C0 mph, SE100%10000m1009hPa79%
19-Jun-2024 03:00Light Rain11°C4 mph, W98%10000m1012hPa79%
19-Jun-2024 06:00Broken Clouds8°C9 mph, W64%10000m1015hPa85%
19-Jun-2024 09:00Clear Sky7°C11 mph, W9%10000m1017hPa91%
19-Jun-2024 12:00Clear Sky7°C9 mph, W5%10000m1020hPa89%
19-Jun-2024 15:00Clear Sky12°C13 mph, W0%10000m1021hPa64%
19-Jun-2024 18:00Clear Sky15°C16 mph, W1%10000m1022hPa59%
19-Jun-2024 21:00Clear Sky17°C16 mph, W6%10000m1022hPa56%
20-Jun-2024 00:00Clear Sky18°C7 mph, SW3%10000m1022hPa66%
20-Jun-2024 03:00Few Clouds13°C7 mph, SW11%10000m1024hPa77%
20-Jun-2024 06:00Scattered Clouds12°C9 mph, S32%10000m1025hPa88%
20-Jun-2024 09:00Broken Clouds13°C9 mph, S77%10000m1024hPa87%
20-Jun-2024 12:00Light Rain13°C11 mph, SW55%10000m1024hPa89%
20-Jun-2024 15:00Clear Sky18°C13 mph, SW10%10000m1025hPa76%
20-Jun-2024 18:00Few Clouds21°C13 mph, S21%10000m1024hPa69%
20-Jun-2024 21:00Light Rain22°C13 mph, S58%10000m1023hPa64%
21-Jun-2024 00:00Light Rain21°C9 mph, S60%10000m1022hPa74%